Time;durP1;ratioP1;P1;durP2;ratioP2;P2;SDS_P1;SDS_P2;PMS_P1;PMS_P2;Temp;Humidity;BMP_temperature;BMP_pressure;BME280_temperature;BME280_humidity;BME280_pressure;Samples;Min_cycle;Max_cycle;Signal;HPM_P1;HPM_P2
2021/01/09 00:01:18;;;;;;;25.40;17.08;;;;;;;0.30;74.63;95956.75;4996726;28;20084;-89
2021/01/09 00:03:43;;;;;;;23.00;16.13;;;;;;;0.46;73.84;95990.94;4996738;28;20026;-89
2021/01/09 00:06:09;;;;;;;23.85;15.77;;;;;;;-0.03;73.94;95937.66;4996705;28;20030;-90
2021/01/09 00:08:34;;;;;;;24.92;17.13;;;;;;;0.10;76.84;95953.16;4997600;28;20026;-90
2021/01/09 00:10:59;;;;;;;26.92;17.45;;;;;;;0.00;73.92;95914.75;4998709;28;20030;-90
2021/01/09 00:13:25;;;;;;;23.02;16.45;;;;;;;-0.01;76.33;95927.34;5001718;28;20057;-90
2021/01/09 00:15:51;;;;;;;22.95;16.48;;;;;;;0.15;74.63;95945.47;4995813;28;20030;-90
2021/01/09 00:18:16;;;;;;;23.10;16.13;;;;;;;0.31;75.41;95966.28;4981954;28;20419;-90
2021/01/09 00:20:41;;;;;;;23.92;16.23;;;;;;;0.40;73.69;95984.53;4982330;28;20034;-90
2021/01/09 00:23:07;;;;;;;26.60;17.77;;;;;;;0.18;74.70;95942.03;4980702;28;20042;-90
2021/01/09 00:25:32;;;;;;;29.90;16.90;;;;;;;0.18;75.23;95951.94;4981508;28;20112;-89
2021/01/09 00:27:58;;;;;;;24.50;17.00;;;;;;;0.05;74.75;95932.25;4981559;28;20419;-89
2021/01/09 00:30:23;;;;;;;26.90;17.70;;;;;;;-0.23;75.27;95894.00;4980701;28;20027;-89
2021/01/09 00:32:49;;;;;;;26.88;18.50;;;;;;;0.07;76.33;95949.41;4980638;28;20396;-90
2021/01/09 00:35:15;;;;;;;29.85;19.33;;;;;;;-0.44;75.57;95870.97;4980623;28;20027;-89
2021/01/09 00:37:41;;;;;;;27.50;19.17;;;;;;;0.02;74.19;95917.78;4980596;28;20049;-89
2021/01/09 00:40:06;;;;;;;35.00;21.27;;;;;;;-0.36;75.44;95874.34;4980539;28;20034;-90
2021/01/09 00:42:37;;;;;;;30.65;20.02;;;;;;;-0.22;75.39;95900.09;4980514;28;20029;-91
2021/01/09 00:45:05;;;;;;;29.17;20.20;;;;;;;0.10;75.96;95940.56;4981490;28;20101;-90
2021/01/09 00:47:31;;;;;;;29.52;19.98;;;;;;;0.17;77.24;95955.78;4983109;28;20321;-91
2021/01/09 00:49:56;;;;;;;31.40;20.08;;;;;;;0.00;75.65;95938.78;4999475;28;20117;-90
2021/01/09 00:52:21;;;;;;;29.95;19.98;;;;;;;0.07;75.17;95948.63;4999799;28;20120;-91
2021/01/09 00:54:47;;;;;;;29.20;18.98;;;;;;;0.26;75.61;95972.06;4999820;28;20022;-90
2021/01/09 00:57:13;;;;;;;26.92;18.10;;;;;;;0.33;74.11;95985.38;4999727;28;20038;-90
2021/01/09 00:59:38;;;;;;;26.58;18.15;;;;;;;0.16;74.25;95968.38;4999700;28;20023;-91
2021/01/09 01:02:03;;;;;;;30.95;19.70;;;;;;;0.09;74.48;95951.66;4999775;28;20055;-89
2021/01/09 01:04:29;;;;;;;27.77;17.98;;;;;;;-0.13;72.12;95930.53;5000568;28;20034;-90
2021/01/09 01:06:54;;;;;;;26.92;17.88;;;;;;;0.13;72.86;95963.81;4999428;28;20112;-90
2021/01/09 01:09:20;;;;;;;16.95;12.15;;;;;;;0.43;68.20;95992.50;4999445;28;20026;-90
2021/01/09 01:11:46;;;;;;;17.05;11.35;;;;;;;0.43;68.20;95992.50;4999449;28;20026;-90
2021/01/09 01:14:11;;;;;;;20.20;12.55;;;;;;;0.43;68.20;95992.50;4999479;28;20026;-89
2021/01/09 01:16:37;;;;;;;19.67;13.13;;;;;;;0.60;69.65;96020.19;4999349;28;20034;-89
2021/01/09 01:19:03;;;;;;;16.00;11.20;;;;;;;0.45;70.32;95995.53;4999225;28;20167;-90
2021/01/09 01:21:29;;;;;;;18.58;12.25;;;;;;;0.45;70.32;95995.53;5000074;28;20050;-89
2021/01/09 01:23:54;;;;;;;14.95;10.63;;;;;;;-145.61;100.00;68426.72;4998982;28;20188;-89
2021/01/09 01:26:20;;;;;;;16.75;11.32;;;;;;;0.45;70.32;95995.53;5000093;28;20037;-90
2021/01/09 01:28:45;;;;;;;18.27;12.13;;;;;;;0.45;70.32;95995.53;4999056;28;20023;-89
2021/01/09 01:31:11;;;;;;;17.48;11.23;;;;;;;0.45;70.32;95995.53;4998951;28;20061;-89
2021/01/09 01:33:38;;;;;;;17.02;12.27;;;;;;;0.21;70.28;95946.56;4999059;28;20030;-90
2021/01/09 01:36:04;;;;;;;16.50;11.07;;;;;;;-145.61;100.00;68426.72;4999959;28;20027;-89
2021/01/09 01:38:31;;;;;;;12.15;9.50;;;;;;;0.21;70.28;95946.56;4999865;28;20418;-89
2021/01/09 01:41:01;;;;;;;11.07;7.63;;;;;;;-145.61;100.00;68426.72;4999787;28;20033;-89
2021/01/09 01:43:26;;;;;;;18.97;10.00;;;;;;;-145.61;100.00;68426.72;4999856;28;20101;-90
2021/01/09 01:45:52;;;;;;;14.65;9.88;;;;;;;-145.61;100.00;68426.72;4999686;28;20046;-89
2021/01/09 01:48:17;;;;;;;14.30;9.25;;;;;;;-145.61;100.00;68426.72;4998470;28;20052;-89
2021/01/09 01:50:43;;;;;;;12.90;8.98;;;;;;;-145.61;100.00;68426.72;4998633;28;20389;-89
2021/01/09 01:53:08;;;;;;;13.05;8.82;;;;;;;-145.61;100.00;68426.72;4998541;28;20018;-89
2021/01/09 01:55:35;;;;;;;12.68;8.73;;;;;;;-145.61;100.00;68426.72;4999581;28;20088;-89
2021/01/09 01:58:00;;;;;;;12.88;8.95;;;;;;;-145.61;100.00;68426.72;4998445;28;20014;-89
2021/01/09 02:00:29;;;;;;;12.30;8.00;;;;;;;0.62;69.54;95993.78;4998495;28;20033;-89
2021/01/09 02:02:55;;;;;;;11.38;6.78;;;;;;;-145.61;100.00;68426.72;4999440;28;20076;-89
2021/01/09 02:05:24;;;;;;;10.57;7.70;;;;;;;-145.61;100.00;68426.72;4999322;28;20418;-89
2021/01/09 02:07:55;;;;;;;9.63;6.88;;;;;;;-145.61;100.00;68426.72;4998641;28;20053;-89
2021/01/09 02:10:23;;;;;;;10.02;7.03;;;;;;;-145.61;100.00;68426.72;4998346;28;20045;-89
2021/01/09 02:13:00;;;;;;;10.85;7.30;;;;;;;-145.61;100.00;68426.72;4999074;28;20041;-88
2021/01/09 02:15:26;;;;;;;9.05;7.10;;;;;;;0.62;69.54;95993.78;4998085;28;20030;-89
2021/01/09 02:17:52;;;;;;;10.68;7.70;;;;;;;0.15;71.81;95937.47;4999052;28;20022;-89
2021/01/09 02:20:19;;;;;;;10.55;7.20;;;;;;;0.15;71.81;95937.47;4998108;28;20129;-89
2021/01/09 02:22:45;;;;;;;10.63;7.47;;;;;;;-145.61;100.00;68426.72;4997800;28;20046;-90
2021/01/09 02:25:11;;;;;;;9.20;6.90;;;;;;;-145.61;100.00;68426.72;4997759;28;20382;-89
2021/01/09 02:27:37;;;;;;;9.70;6.82;;;;;;;-145.61;100.00;68426.72;4998947;28;20326;-89
2021/01/09 02:30:11;;;;;;;11.90;7.60;;;;;;;-145.61;100.00;68426.72;4998903;28;20026;-89
2021/01/09 02:33:05;;;;;;;11.50;7.97;;;;;;;-145.61;100.00;68426.72;4998462;28;20034;-89
2021/01/09 02:35:33;;;;;;;13.35;9.43;;;;;;;-145.61;100.00;68426.72;4994247;28;20109;-89
2021/01/09 02:37:59;;;;;;;12.20;8.43;;;;;;;-145.61;100.00;68426.72;4998656;28;20029;-89
2021/01/09 02:40:24;;;;;;;14.70;9.85;;;;;;;-145.61;100.00;68426.72;4997614;28;20030;-89
2021/01/09 02:42:50;;;;;;;14.05;9.68;;;;;;;-145.61;100.00;68426.72;4997759;28;20053;-89
2021/01/09 02:45:15;;;;;;;12.00;8.82;;;;;;;-145.61;100.00;68426.72;4997904;28;20019;-89
2021/01/09 02:47:41;;;;;;;11.02;7.95;;;;;;;-145.61;100.00;68426.72;4997442;28;20303;-89
2021/01/09 02:50:10;;;;;;;13.15;8.90;;;;;;;-145.61;100.00;68426.72;4998596;28;20026;-89
2021/01/09 02:52:39;;;;;;;11.05;8.02;;;;;;;-145.61;100.00;68426.72;4996970;28;20049;-88
2021/01/09 02:55:06;;;;;;;11.88;8.38;;;;;;;-145.61;100.00;68426.72;4998453;28;20048;-89
2021/01/09 02:57:31;;;;;;;11.15;7.88;;;;;;;-145.61;100.00;68426.72;4997424;28;20026;-89
2021/01/09 02:59:56;;;;;;;10.00;7.25;;;;;;;-145.61;100.00;68426.72;4997289;28;20085;-89
2021/01/09 03:02:22;;;;;;;10.07;7.00;;;;;;;-145.61;100.00;68426.72;4997351;28;20026;-89
2021/01/09 03:04:47;;;;;;;10.05;7.38;;;;;;;-145.61;100.00;68426.72;4997309;28;20044;-89
2021/01/09 03:07:13;;;;;;;9.85;6.88;;;;;;;-145.61;100.00;68426.72;4997342;28;20033;-89
2021/01/09 03:09:39;;;;;;;9.82;7.43;;;;;;;-145.61;100.00;68426.72;4997123;28;20028;-89
2021/01/09 03:12:06;;;;;;;10.70;7.20;;;;;;;-145.61;100.00;68426.72;4998123;28;20036;-89
2021/01/09 03:14:31;;;;;;;11.43;7.35;;;;;;;-145.61;100.00;68426.72;4998111;28;20296;-89
2021/01/09 03:16:57;;;;;;;11.73;7.68;;;;;;;-145.61;100.00;68426.72;4998362;28;20237;-89
2021/01/09 03:19:22;;;;;;;10.82;7.60;;;;;;;-145.61;100.00;68426.72;4997197;28;20022;-89
2021/01/09 03:21:49;;;;;;;10.90;7.70;;;;;;;-145.61;100.00;68426.72;4997046;28;20030;-89
2021/01/09 03:24:15;;;;;;;12.13;7.72;;;;;;;-145.61;100.00;68426.72;4996780;28;20050;-89
2021/01/09 03:26:40;;;;;;;11.77;8.18;;;;;;;-145.61;100.00;68426.72;4997031;28;20026;-89
2021/01/09 03:29:06;;;;;;;13.98;9.02;;;;;;;-145.61;100.00;68426.72;4996815;28;20411;-89
2021/01/09 03:31:31;;;;;;;13.68;9.63;;;;;;;-145.61;100.00;68426.72;4989240;28;20031;-89
2021/01/09 03:33:57;;;;;;;13.02;9.10;;;;;;;-145.61;100.00;68426.72;4977320;28;20062;-89
2021/01/09 03:36:22;;;;;;;13.93;9.68;;;;;;;-145.61;100.00;68426.72;4978609;28;20026;-89
2021/01/09 03:38:50;;;;;;;14.32;9.10;;;;;;;-145.61;100.00;68426.72;4978472;28;20083;-89
2021/01/09 03:41:15;;;;;;;13.65;9.07;;;;;;;-145.61;100.00;68426.72;4993612;28;20030;-89
2021/01/09 03:43:40;;;;;;;13.68;9.32;;;;;;;-145.61;100.00;68426.72;4993583;28;20027;-89
2021/01/09 03:46:06;;;;;;;15.48;9.68;;;;;;;-145.61;100.00;68426.72;4976435;28;20027;-89
2021/01/09 03:48:31;;;;;;;14.80;9.35;;;;;;;-145.61;100.00;68426.72;4978197;28;20031;-89
2021/01/09 03:50:57;;;;;;;14.07;9.77;;;;;;;-145.61;100.00;68426.72;4978298;28;20038;-89
2021/01/09 03:53:22;;;;;;;16.05;9.73;;;;;;;-145.61;100.00;68426.72;4978385;28;20086;-89
2021/01/09 03:55:48;;;;;;;14.93;10.18;;;;;;;-145.61;100.00;68426.72;4993639;28;20031;-90
2021/01/09 03:58:13;;;;;;;13.48;9.25;;;;;;;-145.61;100.00;68426.72;4977351;28;20490;-89
2021/01/09 04:00:39;;;;;;;14.30;9.90;;;;;;;-145.61;100.00;68426.72;4993512;28;20089;-89
2021/01/09 04:03:04;;;;;;;15.70;9.65;;;;;;;-145.61;100.00;68426.72;4993315;28;20394;-90
2021/01/09 04:05:30;;;;;;;14.68;9.57;;;;;;;-145.61;100.00;68426.72;4993489;28;20061;-89
2021/01/09 04:07:55;;;;;;;14.27;9.50;;;;;;;-145.61;100.00;68426.72;4977312;28;20363;-89
2021/01/09 04:10:21;;;;;;;13.00;9.48;;;;;;;-145.61;100.00;68426.72;4995132;28;20032;-89
2021/01/09 04:12:46;;;;;;;12.15;9.02;;;;;;;-145.61;100.00;68426.72;4998034;28;20077;-89
2021/01/09 04:15:12;;;;;;;14.38;9.63;;;;;;;0.15;71.81;95937.47;4997693;28;20034;-89
2021/01/09 04:17:38;;;;;;;11.75;8.65;;;;;;;-145.61;100.00;68426.72;4979217;28;20327;-89
2021/01/09 04:20:04;;;;;;;14.18;8.52;;;;;;;-145.61;100.00;68426.72;4977011;28;20382;-89
2021/01/09 04:22:30;;;;;;;15.00;9.27;;;;;;;-145.61;100.00;68426.72;4976895;28;20062;-89
2021/01/09 04:24:55;;;;;;;11.85;8.23;;;;;;;-145.61;100.00;68426.72;4978225;28;20027;-89
2021/01/09 04:27:21;;;;;;;11.82;8.02;;;;;;;-145.61;100.00;68426.72;4976876;28;20034;-89
2021/01/09 04:29:46;;;;;;;12.82;8.82;;;;;;;-145.61;100.00;68426.72;4977022;28;20075;-89
2021/01/09 04:32:11;;;;;;;11.15;8.27;;;;;;;-145.61;100.00;68426.72;4994836;28;20026;-89
2021/01/09 04:34:37;;;;;;;12.25;8.27;;;;;;;-145.61;100.00;68426.72;4996296;28;20034;-89
2021/01/09 04:37:02;;;;;;;13.13;8.88;;;;;;;-145.61;100.00;68426.72;4996213;28;20414;-89
2021/01/09 04:39:28;;;;;;;12.02;8.50;;;;;;;-145.61;100.00;68426.72;4997357;28;20030;-89
2021/01/09 04:41:53;;;;;;;12.13;8.52;;;;;;;0.15;71.81;95937.47;4996560;28;20022;-89
2021/01/09 04:44:19;;;;;;;12.35;8.68;;;;;;;-145.61;100.00;68426.72;4996235;28;20062;-90
2021/01/09 04:46:54;;;;;;;11.77;8.45;;;;;;;-145.61;100.00;68426.72;4996516;28;20490;-89
2021/01/09 04:49:22;;;;;;;12.65;8.27;;;;;;;-0.35;70.99;95929.22;4989628;28;20049;-89
2021/01/09 04:51:48;;;;;;;12.35;8.60;;;;;;;-0.35;70.99;95929.22;4977702;28;20101;-90
2021/01/09 04:54:19;;;;;;;15.30;9.55;;;;;;;-0.35;70.99;95929.22;4977795;28;20038;-89
2021/01/09 04:56:47;;;;;;;15.55;9.60;;;;;;;-145.61;100.00;68426.72;4979251;28;20027;-90
2021/01/09 04:59:13;;;;;;;14.55;10.02;;;;;;;-145.61;100.00;68426.72;4980258;28;20066;-89
2021/01/09 05:01:43;;;;;;;16.40;10.25;;;;;;;-145.61;100.00;68426.72;4980205;28;20037;-90
2021/01/09 05:04:09;;;;;;;16.58;10.70;;;;;;;-145.61;100.00;68426.72;4981093;28;20061;-90
2021/01/09 05:06:36;;;;;;;16.45;11.15;;;;;;;-145.61;100.00;68426.72;4980176;28;20133;-89
2021/01/09 05:09:02;;;;;;;14.63;9.95;;;;;;;-0.35;70.99;95929.22;4980757;28;20030;-89
2021/01/09 05:11:31;;;;;;;14.10;9.35;;;;;;;-145.61;100.00;68426.72;4980059;28;20038;-90
2021/01/09 05:13:57;;;;;;;12.43;9.25;;;;;;;-0.35;70.99;95929.22;4979922;28;20026;-90
2021/01/09 05:16:23;;;;;;;12.50;8.88;;;;;;;-0.35;70.99;95929.22;4992350;28;20057;-90
2021/01/09 05:18:48;;;;;;;15.48;9.48;;;;;;;-0.11;71.93;95994.19;5000297;28;20054;-90
2021/01/09 05:21:15;;;;;;;12.77;9.27;;;;;;;-0.11;71.93;95994.19;5000252;28;20031;-90
2021/01/09 05:23:50;;;;;;;13.38;9.02;;;;;;;0.07;72.04;96066.16;4990971;28;20073;-90
2021/01/09 05:26:17;;;;;;;15.07;9.43;;;;;;;0.07;72.04;96066.16;4980811;28;20232;-90
2021/01/09 05:28:53;;;;;;;14.88;9.70;;;;;;;0.07;72.04;96066.16;4979603;28;20062;-89
2021/01/09 05:31:20;;;;;;;16.23;10.15;;;;;;;0.07;72.04;96066.16;4993235;28;20030;-89
2021/01/09 05:33:47;;;;;;;17.27;11.18;;;;;;;-145.61;100.00;68426.72;4999939;28;20018;-90
2021/01/09 05:36:13;;;;;;;18.55;11.20;;;;;;;-145.61;100.00;68426.72;4999976;28;20058;-90
2021/01/09 05:38:43;;;;;;;23.08;12.70;;;;;;;-0.14;71.16;96041.16;4999052;28;20022;-90
2021/01/09 05:41:11;;;;;;;20.77;12.60;;;;;;;-0.14;71.16;96041.16;4999936;28;20354;-90
2021/01/09 05:43:38;;;;;;;18.33;11.65;;;;;;;-145.61;100.00;68426.72;4998903;28;20085;-90
2021/01/09 05:46:05;;;;;;;12.38;8.43;;;;;;;-145.61;100.00;68426.72;4998452;28;20065;-89
2021/01/09 05:48:32;;;;;;;11.65;8.15;;;;;;;-145.61;100.00;68426.72;5000346;28;20402;-90
2021/01/09 05:51:02;;;;;;;12.32;8.77;;;;;;;-145.61;100.00;68426.72;5000177;28;20049;-89
2021/01/09 05:53:39;;;;;;;14.52;9.43;;;;;;;-0.06;71.26;96108.59;4995748;28;20304;-89
2021/01/09 05:56:05;;;;;;;14.93;9.57;;;;;;;-145.61;100.00;68426.72;4980358;28;20031;-89
2021/01/09 06:01:58;;;;;;;13.75;9.80;;;;;;;-0.06;71.26;96108.59;4994131;28;20088;-90
2021/01/09 06:04:28;;;;;;;12.48;8.85;;;;;;;-0.33;73.29;96109.16;5015910;28;20026;-90
2021/01/09 06:07:20;;;;;;;10.52;7.30;;;;;;;-145.61;100.00;68426.72;5019024;28;20030;-90
2021/01/09 06:10:05;;;;;;;9.38;7.00;;;;;;;-145.61;100.00;68426.72;5012023;28;20050;-89
2021/01/09 06:12:40;;;;;;;9.77;7.00;;;;;;;-0.59;70.67;96067.78;5008607;28;20116;-89
2021/01/09 06:15:06;;;;;;;10.70;7.35;;;;;;;-145.61;100.00;68426.72;5018666;28;20413;-89
2021/01/09 06:17:34;;;;;;;10.38;7.50;;;;;;;-0.44;69.91;96092.47;5002101;28;20101;-89
2021/01/09 06:20:00;;;;;;;11.73;8.18;;;;;;;-0.44;69.91;96092.47;4998477;28;20433;-90
2021/01/09 06:22:27;;;;;;;12.60;8.18;;;;;;;-145.61;100.00;68426.72;4988460;28;20035;-90
2021/01/09 06:24:52;;;;;;;10.73;8.15;;;;;;;-0.24;71.65;96111.41;4978628;28;20047;-90
2021/01/09 06:27:24;;;;;;;10.90;7.47;;;;;;;-0.38;71.45;96106.91;4978749;28;20319;-90
2021/01/09 06:29:54;;;;;;;11.60;7.60;;;;;;;-0.38;71.45;96106.91;4989827;28;20084;-90
2021/01/09 06:32:27;;;;;;;11.10;7.90;;;;;;;-0.41;100.00;68426.72;4998031;28;20031;-90
2021/01/09 06:34:54;;;;;;;11.88;7.65;;;;;;;-0.62;73.33;96089.16;4979621;28;20034;-90
2021/01/09 06:37:23;;;;;;;12.18;8.65;;;;;;;-0.62;73.33;96089.16;4978497;28;20031;-90
2021/01/09 06:39:50;;;;;;;12.90;9.07;;;;;;;-145.61;100.00;68426.72;4981502;28;20096;-90
2021/01/09 06:42:18;;;;;;;16.15;9.65;;;;;;;-0.11;100.00;96151.75;4998771;28;20103;-90
2021/01/09 06:44:54;;;;;;;15.20;9.82;;;;;;;-1.15;74.82;96008.31;4994783;28;20391;-90
2021/01/09 06:47:28;;;;;;;18.88;11.10;;;;;;;-0.78;74.04;96057.63;4981163;28;20485;-90
2021/01/09 06:50:16;;;;;;;17.20;11.10;;;;;;;-0.13;74.71;96156.72;4978232;28;20035;-90
2021/01/09 06:52:54;;;;;;;19.05;12.00;;;;;;;-0.08;74.69;96161.66;4978089;28;20034;-89
2021/01/09 06:55:38;;;;;;;16.08;10.95;;;;;;;-0.05;74.18;96161.63;4994766;28;20077;-90
2021/01/09 06:58:08;;;;;;;14.95;10.45;;;;;;;-0.17;74.46;96148.72;4990390;28;20097;-90
2021/01/09 07:00:35;;;;;;;20.43;12.27;;;;;;;-0.17;74.46;96148.72;4988771;28;20033;-89
2021/01/09 07:03:34;;;;;;;18.88;12.50;;;;;;;-0.02;74.27;96168.84;4980132;28;20272;-90
2021/01/09 07:06:00;;;;;;;20.33;12.80;;;;;;;-0.28;72.54;96132.78;4993702;28;20141;-90
2021/01/09 07:08:28;;;;;;;17.00;11.35;;;;;;;0.03;73.84;96178.34;4998263;28;20466;-89
2021/01/09 07:10:57;;;;;;;17.15;12.38;;;;;;;-0.18;72.01;96143.78;4995219;28;20432;-90
2021/01/09 07:13:23;;;;;;;19.27;12.38;;;;;;;0.01;71.38;96180.66;4993538;28;20048;-89
2021/01/09 07:16:09;;;;;;;18.25;13.38;;;;;;;0.01;71.38;96180.66;4998251;28;20054;-89
2021/01/09 07:18:50;;;;;;;15.93;11.95;;;;;;;0.01;71.38;96180.66;4997260;28;20029;-89
2021/01/09 07:21:19;;;;;;;19.27;12.48;;;;;;;0.01;71.38;96180.66;4996691;28;20350;-89
2021/01/09 07:23:51;;;;;;;19.03;12.63;;;;;;;0.01;71.38;96180.66;4997043;28;20046;-90
2021/01/09 07:26:18;;;;;;;18.05;12.88;;;;;;;0.01;71.38;96180.66;4984986;28;20034;-88
2021/01/09 07:28:46;;;;;;;20.13;12.88;;;;;;;0.34;74.03;96192.63;4989871;28;20019;-89
2021/01/09 07:31:12;;;;;;;19.60;12.98;;;;;;;0.32;75.46;96191.50;4996728;28;20113;-86
2021/01/09 07:33:38;;;;;;;19.45;12.93;;;;;;;0.35;73.95;96191.47;4996737;28;20113;-88
2021/01/09 07:36:04;;;;;;;18.60;12.93;;;;;;;0.24;73.03;96164.06;4995284;28;20038;-89
2021/01/09 07:38:30;;;;;;;18.25;13.15;;;;;;;0.03;73.14;96132.94;4977417;28;20039;-91
2021/01/09 07:41:05;;;;;;;17.00;12.50;;;;;;;0.03;73.14;96132.94;4991902;28;20066;-89
2021/01/09 07:43:35;;;;;;;17.70;12.82;;;;;;;0.03;73.14;96132.94;4979815;28;20050;-91
2021/01/09 07:46:02;;;;;;;17.73;12.70;;;;;;;-0.10;73.12;96132.69;4996655;28;20414;-89
2021/01/09 07:48:34;;;;;;;18.58;12.38;;;;;;;0.39;73.09;96212.81;4996552;28;20026;-87
2021/01/09 07:50:59;;;;;;;15.43;11.30;;;;;;;-0.06;71.37;96146.75;4997474;28;20086;-88
2021/01/09 07:53:28;;;;;;;17.15;11.73;;;;;;;0.10;71.85;96158.84;5000697;28;20058;-88
2021/01/09 07:55:54;;;;;;;17.35;12.73;;;;;;;0.00;70.61;96136.41;4997220;28;20125;-89
2021/01/09 07:58:41;;;;;;;21.52;14.60;;;;;;;0.51;70.68;96209.66;4996536;28;20156;-89
2021/01/09 08:01:07;;;;;;;25.15;16.80;;;;;;;0.51;70.68;96209.66;4996569;28;20070;-89
2021/01/09 08:03:32;;;;;;;25.25;16.77;;;;;;;0.51;70.68;96209.66;4996625;28;20022;-88
2021/01/09 08:05:58;;;;;;;19.90;14.63;;;;;;;0.51;70.68;96209.66;4996409;28;20031;-89
2021/01/09 08:08:25;;;;;;;21.35;13.88;;;;;;;0.51;70.68;96209.66;4996331;28;20034;-88
2021/01/09 08:10:51;;;;;;;18.33;13.77;;;;;;;-145.61;100.00;68426.72;4996429;28;20406;-88
2021/01/09 08:13:17;;;;;;;20.65;13.95;;;;;;;-145.61;100.00;68426.72;4996389;28;20030;-87
2021/01/09 08:15:43;;;;;;;18.92;13.73;;;;;;;-145.61;100.00;68426.72;4993520;28;20035;-88
2021/01/09 08:18:10;;;;;;;20.95;14.10;;;;;;;0.18;71.07;96147.72;4992590;28;20875;-88
2021/01/09 08:20:36;;;;;;;20.80;14.43;;;;;;;0.18;71.07;96147.72;4996112;28;20030;-88
2021/01/09 08:23:06;;;;;;;22.80;15.75;;;;;;;-145.61;100.00;68426.72;4996166;28;20034;-88
2021/01/09 08:25:34;;;;;;;24.25;15.73;;;;;;;-145.61;100.00;68426.72;4997311;28;20027;-89
2021/01/09 08:28:03;;;;;;;21.48;15.00;;;;;;;-145.61;100.00;68426.72;4996152;28;20036;-89
2021/01/09 08:30:37;;;;;;;21.30;14.95;;;;;;;-145.61;100.00;68426.72;4996172;28;20022;-89
2021/01/09 08:33:19;;;;;;;22.95;15.05;;;;;;;-145.61;100.00;68426.72;4999744;28;20037;-88
2021/01/09 08:35:50;;;;;;;28.95;18.52;;;;;;;-145.61;100.00;68426.72;4999870;28;20026;-87
2021/01/09 08:38:16;;;;;;;27.73;18.63;;;;;;;-145.61;100.00;68426.72;4999286;28;20406;-89
2021/01/09 08:40:44;;;;;;;24.00;16.70;;;;;;;-145.61;100.00;68426.72;4996224;28;20330;-92
2021/01/09 08:43:10;;;;;;;23.30;16.13;;;;;;;-145.61;100.00;68426.72;5000116;28;20030;-92
2021/01/09 08:45:53;;;;;;;23.08;16.40;;;;;;;-145.61;100.00;68426.72;5001114;28;20438;-90
2021/01/09 08:48:21;;;;;;;27.05;18.63;;;;;;;0.18;71.07;96147.72;4999806;28;20066;-89
2021/01/09 08:50:54;;;;;;;26.73;18.85;;;;;;;-145.61;100.00;68426.72;4999868;28;20406;-91
2021/01/09 08:53:20;;;;;;;20.15;14.95;;;;;;;-145.61;100.00;68426.72;5000225;28;20026;-90
2021/01/09 08:55:47;;;;;;;16.10;10.85;;;;;;;-145.61;100.00;68426.72;4999728;28;20033;-91
2021/01/09 08:58:15;;;;;;;14.55;10.30;;;;;;;-145.61;100.00;68426.72;5020044;28;20057;-90
2021/01/09 09:00:40;;;;;;;13.73;9.90;;;;;;;-145.61;100.00;68426.72;5016570;28;20033;-91
2021/01/09 09:03:08;;;;;;;13.20;8.90;;;;;;;-145.61;100.00;68426.72;4999589;28;20026;-92
2021/01/09 09:05:34;;;;;;;12.20;8.60;;;;;;;-145.61;100.00;68426.72;5000644;28;20363;-93
2021/01/09 09:08:03;;;;;;;9.00;6.70;;;;;;;-145.61;100.00;68426.72;4987344;28;20058;-96
2021/01/09 09:10:31;;;;;;;10.23;7.25;;;;;;;-145.61;100.00;68426.72;4980321;28;20088;-94
2021/01/09 09:13:23;;;;;;;10.52;7.45;;;;;;;-145.61;100.00;68426.72;4980003;28;20551;-94
2021/01/09 09:15:49;;;;;;;11.38;8.30;;;;;;;-145.61;100.00;68426.72;4979922;28;20037;-94
2021/01/09 09:19:02;;;;;;;13.88;9.40;;;;;;;-145.61;100.00;68426.72;4991343;28;20058;-92
2021/01/09 09:24:53;;;;;;;13.77;8.38;;;;;;;-145.61;100.00;68426.72;4992494;28;20046;-90
2021/01/09 09:27:22;;;;;;;11.07;7.70;;;;;;;-145.61;100.00;68426.72;4988210;28;20178;-90
2021/01/09 09:29:47;;;;;;;12.90;9.27;;;;;;;-145.61;100.00;68426.72;4979520;28;20023;-91
2021/01/09 09:32:23;;;;;;;12.88;9.45;;;;;;;-145.61;100.00;68426.72;4979681;28;20027;-89
2021/01/09 09:34:49;;;;;;;14.80;10.70;;;;;;;-145.61;100.00;68426.72;4979563;28;20327;-87
2021/01/09 09:37:14;;;;;;;13.35;9.35;;;;;;;-145.61;100.00;68426.72;4989479;28;20037;-89
2021/01/09 09:39:40;;;;;;;18.25;13.48;;;;;;;-145.61;100.00;68426.72;4994823;28;20027;-91
2021/01/09 09:42:05;;;;;;;17.90;12.27;;;;;;;-145.61;100.00;68426.72;4998547;28;20022;-89
2021/01/09 09:44:44;;;;;;;12.43;9.50;;;;;;;-145.61;100.00;68426.72;4998650;28;20022;-88
2021/01/09 09:47:27;;;;;;;16.92;10.73;;;;;;;-145.61;100.00;68426.72;4981281;28;20053;-91
2021/01/09 09:50:32;;;;;;;20.98;12.40;;;;;;;-145.61;100.00;68426.72;4997481;28;20034;-96
2021/01/09 09:53:05;;;;;;;14.20;8.82;;;;;;;-145.61;100.00;68426.72;5000082;28;20030;-95
2021/01/09 09:55:30;;;;;;;14.98;9.95;;;;;;;-145.61;100.00;68426.72;5000112;28;20113;-91
2021/01/09 09:58:09;;;;;;;14.90;10.85;;;;;;;-145.61;100.00;68426.72;4998678;28;20109;-90
2021/01/09 10:00:46;;;;;;;17.83;11.77;;;;;;;-145.61;100.00;68426.72;4998724;28;20033;-92
2021/01/09 10:03:12;;;;;;;14.20;10.30;;;;;;;-145.61;100.00;68426.72;4995158;28;20018;-93
2021/01/09 10:05:38;;;;;;;16.58;10.73;;;;;;;-145.61;100.00;68426.72;4979923;28;20030;-94
2021/01/09 10:08:29;;;;;;;15.20;11.18;;;;;;;-145.61;100.00;68426.72;4982122;28;20023;-91
2021/01/09 10:10:54;;;;;;;23.02;11.73;;;;;;;-145.61;100.00;68426.72;5002600;28;20030;-89
2021/01/09 10:13:27;;;;;;;27.45;13.07;;;;;;;-145.61;100.00;68426.72;4999305;28;20327;-89
2021/01/09 10:15:53;;;;;;;29.35;12.68;;;;;;;-145.61;100.00;68426.72;4999895;28;20307;-92
2021/01/09 10:18:40;;;;;;;16.73;9.85;;;;;;;-145.61;100.00;68426.72;5002571;28;20033;-96
2021/01/09 10:21:05;;;;;;;22.95;11.38;;;;;;;-145.61;100.00;68426.72;4950139;29;20098;-93
2021/01/09 10:23:31;;;;;;;21.08;11.68;;;;;;;-145.61;100.00;68426.72;4948504;29;20055;-94
2021/01/09 10:25:56;;;;;;;15.82;9.32;;;;;;;-145.61;100.00;68426.72;4940268;29;20123;-92
2021/01/09 10:28:23;;;;;;;13.02;9.10;;;;;;;-145.61;100.00;68426.72;4958944;29;20045;-95
2021/01/09 10:30:49;;;;;;;12.60;8.02;;;;;;;-145.61;100.00;68426.72;4960696;29;20077;-91
2021/01/09 10:33:15;;;;;;;14.23;8.73;;;;;;;-145.61;100.00;68426.72;4958558;29;20050;-91
2021/01/09 10:35:47;;;;;;;16.60;9.20;;;;;;;-145.61;100.00;68426.72;4958723;29;20135;-90
2021/01/09 10:38:13;;;;;;;16.50;9.27;;;;;;;-145.61;100.00;68426.72;4959584;29;20032;-93
2021/01/09 10:40:39;;;;;;;14.48;9.45;;;;;;;-145.61;100.00;68426.72;4943317;29;20039;-89
2021/01/09 10:43:04;;;;;;;17.17;8.90;;;;;;;-145.61;100.00;68426.72;4957708;29;20035;-88
2021/01/09 10:45:29;;;;;;;16.70;11.45;;;;;;;-145.61;100.00;68426.72;4943545;29;20092;-93
2021/01/09 10:47:55;;;;;;;20.65;13.20;;;;;;;-145.61;100.00;68426.72;4953511;29;20023;-93
2021/01/09 10:50:20;;;;;;;24.00;13.80;;;;;;;-145.61;100.00;68426.72;4955829;29;20544;-91
2021/01/09 10:52:46;;;;;;;26.25;15.23;;;;;;;-145.61;100.00;68426.72;4999631;28;20049;-95
2021/01/09 10:55:12;;;;;;;23.75;14.07;;;;;;;-145.61;100.00;68426.72;4989064;28;20093;-93
2021/01/09 10:57:37;;;;;;;21.38;13.38;;;;;;;-145.61;100.00;68426.72;5001556;28;20033;-91
2021/01/09 11:00:06;;;;;;;31.50;17.92;;;;;;;-145.61;100.00;68426.72;4997968;28;20038;-89
2021/01/09 11:02:31;;;;;;;28.70;17.27;;;;;;;-145.61;100.00;68426.72;4996892;28;20041;-89
2021/01/09 11:04:57;;;;;;;29.85;17.80;;;;;;;-145.61;100.00;68426.72;4997326;28;20022;-88
2021/01/09 11:07:22;;;;;;;30.15;20.10;;;;;;;-145.61;100.00;68426.72;4998148;28;20053;-91
2021/01/09 11:09:47;;;;;;;30.70;19.30;;;;;;;-145.61;100.00;68426.72;4998872;28;20080;-93
2021/01/09 11:12:13;;;;;;;29.35;19.33;;;;;;;-145.61;100.00;68426.72;4999944;28;20117;-94
2021/01/09 11:14:38;;;;;;;24.98;16.80;;;;;;;-145.61;100.00;68426.72;4997952;28;20062;-94
2021/01/09 11:17:04;;;;;;;26.35;17.60;;;;;;;-145.61;100.00;68426.72;4979682;28;20033;-87
2021/01/09 11:19:29;;;;;;;29.25;18.40;;;;;;;-145.61;100.00;68426.72;4979507;28;20026;-94
2021/01/09 11:22:00;;;;;;;28.80;19.13;;;;;;;-145.61;100.00;68426.72;4979445;28;20038;-91